Spencer, South Dakota
Current Conditions -  °F | °C
As of 6:53 PM on Wednesday 22 Oct 2014 (Local Time) from KMHE Reporting Station
Clear Clear  
Wind Chill: 14°   Ceiling: Unl
Heat Index: 14°   Visibility: 10mi
Dew Point: 12°   Wind: 3mph
Humidity: 89%   Direction: 240°WSW
Pressure: 29.99"   Gusts: NA
Location:  43.73°N, 97.59°W
Report Text: KMHE 222353Z AUTO 24003KT 10SM CLR 14/12 A2999 RMK AO2 SLP156 60028 T01390122 10206 20133 53011 $
Loading
Personal Weather Stations






























Interactive Weather Map
Tropical Storm Tracking
New forecast layout! Learn more

10-Day Weather Forecast

Advertisements
Track Severe Weather on mobile